Time;durP1;ratioP1;P1;durP2;ratioP2;P2;SDS_P1;SDS_P2;PMS_P1;PMS_P2;Temp;Humidity;BMP_temperature;BMP_pressure;BME280_temperature;BME280_humidity;BME280_pressure;Samples;Min_cycle;Max_cycle;Signal;HPM_P1;HPM_P2
2022/01/04 00:00:59;;;;;;;;;;;7.50;99.90;;;;;;5043954;28;20059;-73
2022/01/04 00:03:26;;;;;;;;;;;7.50;99.90;;;;;;5061325;28;20059;-73
2022/01/04 00:05:55;;;;;;;;;;;7.50;99.90;;;;;;5047765;28;20059;-72
2022/01/04 00:08:23;;;;;;;;;;;7.50;99.90;;;;;;5048236;28;20075;-73
2022/01/04 00:10:54;;;;;;;;;;;7.50;99.90;;;;;;5048590;28;20067;-73
2022/01/04 00:13:24;;;;;;;;;;;7.50;99.90;;;;;;5048313;28;20283;-73
2022/01/04 00:15:52;;;;;;;;;;;7.40;99.90;;;;;;5047786;28;20131;-73
2022/01/04 00:18:19;;;;;;;;;;;7.40;99.90;;;;;;5047402;28;20057;-73
2022/01/04 00:20:47;;;;;;;;;;;7.30;99.90;;;;;;5048628;28;20066;-72
2022/01/04 00:23:16;;;;;;;;;;;7.30;99.90;;;;;;5047878;28;20060;-72
2022/01/04 00:25:43;;;;;;;;;;;7.40;99.90;;;;;;5047154;28;20067;-73
2022/01/04 00:28:10;;;;;;;;;;;7.30;99.90;;;;;;5047534;28;20059;-73
2022/01/04 00:30:38;;;;;;;;;;;7.30;99.90;;;;;;5047678;28;20066;-73
2022/01/04 00:33:05;;;;;;;;;;;7.40;99.90;;;;;;5046998;28;20094;-72
2022/01/04 00:35:32;;;;;;;;;;;7.40;99.90;;;;;;5048055;28;20057;-72
2022/01/04 00:37:59;;;;;;;;;;;7.30;99.90;;;;;;5047957;28;20099;-72
2022/01/04 00:40:28;;;;;;;;;;;7.30;99.90;;;;;;5048179;28;20566;-72
2022/01/04 00:42:58;;;;;;;;;;;7.30;99.90;;;;;;5047782;28;20074;-72
2022/01/04 00:45:25;;;;;;;;;;;7.30;99.90;;;;;;5044364;28;20051;-74
2022/01/04 00:50:34;;;;;;;;;;;7.30;99.90;;;;;;5057954;28;20076;-73
2022/01/04 00:53:01;;;;;;;;;;;7.30;99.90;;;;;;5043004;28;20059;-72
2022/01/04 00:55:31;;;;;;;;;;;7.20;99.90;;;;;;5042844;28;20072;-73
2022/01/04 00:57:58;;;;;;;;;;;7.20;99.90;;;;;;5042568;28;20051;-72
2022/01/04 01:00:25;;;;;;;;;;;7.20;99.90;;;;;;5043398;28;20086;-73
2022/01/04 01:02:52;;;;;;;;;;;7.20;99.90;;;;;;5047327;28;20059;-73
2022/01/04 01:05:22;;;;;;;;;;;7.20;99.90;;;;;;5047505;28;21007;-73
2022/01/04 01:07:49;;;;;;;;;;;7.20;99.90;;;;;;5046057;28;20168;-70
2022/01/04 01:10:34;;;;;;;;;;;7.20;99.90;;;;;;5046626;28;21039;-72
2022/01/04 01:13:03;;;;;;;;;;;7.20;99.90;;;;;;5047051;28;20052;-72
2022/01/04 01:15:30;;;;;;;;;;;7.20;99.90;;;;;;5047295;28;21025;-73
2022/01/04 01:17:57;;;;;;;;;;;7.20;99.90;;;;;;5047594;28;21180;-73
2022/01/04 01:20:25;;;;;;;;;;;7.10;99.90;;;;;;5046888;28;20074;-73
2022/01/04 01:22:52;;;;;;;;;;;7.20;99.90;;;;;;5046240;28;20064;-73
2022/01/04 01:25:20;;;;;;;;;;;7.10;99.90;;;;;;5046563;28;20058;-73
2022/01/04 01:27:47;;;;;;;;;;;7.10;99.90;;;;;;5046619;28;20056;-73
2022/01/04 01:30:15;;;;;;;;;;;7.10;99.90;;;;;;5046997;28;20066;-73
2022/01/04 01:32:42;;;;;;;;;;;7.10;99.90;;;;;;5046628;28;20081;-74
2022/01/04 01:35:09;;;;;;;;;;;7.10;99.90;;;;;;5047364;28;20050;-73
2022/01/04 01:37:37;;;;;;;;;;;7.10;99.90;;;;;;5046497;28;20140;-72
2022/01/04 01:40:04;;;;;;;;;;;7.10;99.90;;;;;;5047201;28;20075;-72
2022/01/04 01:42:31;;;;;;;;;;;7.10;99.90;;;;;;5046613;28;20196;-73
2022/01/04 01:44:59;;;;;;;;;;;7.10;99.90;;;;;;5044843;28;20139;-73
2022/01/04 01:47:27;;;;;;;;;;;7.10;99.90;;;;;;5058849;28;20075;-73
2022/01/04 01:49:54;;;;;;;;;;;7.10;99.90;;;;;;5041874;28;20051;-73
2022/01/04 01:52:21;;;;;;;;;;;7.10;99.90;;;;;;5042140;28;20051;-72
2022/01/04 01:54:49;;;;;;;;;;;7.10;99.90;;;;;;5042293;28;20148;-73
2022/01/04 01:57:16;;;;;;;;;;;7.10;99.90;;;;;;5042446;28;20066;-73
2022/01/04 01:59:43;;;;;;;;;;;7.10;99.90;;;;;;5042290;28;20067;-72
2022/01/04 02:02:10;;;;;;;;;;;7.10;99.90;;;;;;5041354;28;20058;-72
2022/01/04 02:04:39;;;;;;;;;;;7.10;99.90;;;;;;5040280;28;21082;-72
2022/01/04 02:07:07;;;;;;;;;;;7.10;99.90;;;;;;5042750;28;20060;-72
2022/01/04 02:09:37;;;;;;;;;;;7.10;99.90;;;;;;5041988;28;20067;-73
2022/01/04 02:12:05;;;;;;;;;;;7.10;99.90;;;;;;5043486;28;20076;-72
2022/01/04 02:14:32;;;;;;;;;;;7.10;99.90;;;;;;5046174;28;20051;-74
2022/01/04 02:16:59;;;;;;;;;;;7.00;99.90;;;;;;5063053;28;20130;-72
2022/01/04 02:19:26;;;;;;;;;;;7.00;99.90;;;;;;5047703;28;20050;-73
2022/01/04 02:21:55;;;;;;;;;;;7.00;99.90;;;;;;5050155;28;21115;-73
2022/01/04 02:24:22;;;;;;;;;;;7.00;99.90;;;;;;5050877;28;20059;-73
2022/01/04 02:26:49;;;;;;;;;;;7.10;99.90;;;;;;5050010;28;21117;-73
2022/01/04 02:29:16;;;;;;;;;;;7.00;99.90;;;;;;5047544;28;20104;-73
2022/01/04 02:31:44;;;;;;;;;;;7.10;99.90;;;;;;5049073;28;21172;-71
2022/01/04 02:34:11;;;;;;;;;;;7.00;99.90;;;;;;5050224;28;21034;-72
2022/01/04 02:36:40;;;;;;;;;;;7.10;99.90;;;;;;5050272;28;20067;-73
2022/01/04 02:39:09;;;;;;;;;;;7.00;99.90;;;;;;5071922;28;20066;-73
2022/01/04 02:41:36;;;;;;;;;;;7.00;99.90;;;;;;5093442;28;20068;-73
2022/01/04 02:44:03;;;;;;;;;;;7.00;99.90;;;;;;5091739;28;20068;-73
2022/01/04 02:46:30;;;;;;;;;;;7.00;99.90;;;;;;5091179;28;20074;-74
2022/01/04 02:48:57;;;;;;;;;;;7.00;99.90;;;;;;5089485;28;20082;-74
2022/01/04 02:51:24;;;;;;;;;;;7.00;99.90;;;;;;5094207;28;20078;-73
2022/01/04 02:53:51;;;;;;;;;;;7.00;99.90;;;;;;5097108;28;20059;-73
2022/01/04 02:56:20;;;;;;;;;;;7.00;99.90;;;;;;5050588;28;20065;-73
2022/01/04 02:58:47;;;;;;;;;;;7.00;99.90;;;;;;5050135;28;20067;-73
2022/01/04 03:01:14;;;;;;;;;;;7.00;99.90;;;;;;5070652;28;20067;-73
2022/01/04 03:03:41;;;;;;;;;;;7.00;99.90;;;;;;5053015;28;20067;-73
2022/01/04 03:06:13;;;;;;;;;;;7.00;99.90;;;;;;5062404;28;20051;-73
2022/01/04 03:08:40;;;;;;;;;;;7.00;99.90;;;;;;5058799;28;20064;-73
2022/01/04 03:11:08;;;;;;;;;;;7.00;99.90;;;;;;5059407;28;21076;-72
2022/01/04 03:13:37;;;;;;;;;;;7.00;99.90;;;;;;5049053;28;20151;-73
2022/01/04 03:16:04;;;;;;;;;;;7.00;99.90;;;;;;5049749;28;20066;-73
2022/01/04 03:18:31;;;;;;;;;;;7.00;99.90;;;;;;5049438;28;20262;-72
2022/01/04 03:20:58;;;;;;;;;;;7.00;99.90;;;;;;5049962;28;20070;-73
2022/01/04 03:23:26;;;;;;;;;;;7.00;99.90;;;;;;5048809;28;21123;-73
2022/01/04 03:25:53;;;;;;;;;;;7.00;99.90;;;;;;5048477;28;21222;-73
2022/01/04 03:28:22;;;;;;;;;;;7.00;99.90;;;;;;5049399;28;20050;-73
2022/01/04 03:30:51;;;;;;;;;;;7.00;99.90;;;;;;5048042;28;20231;-72
2022/01/04 03:33:18;;;;;;;;;;;6.90;99.90;;;;;;5048956;28;20059;-73
2022/01/04 03:35:45;;;;;;;;;;;6.90;99.90;;;;;;5048812;28;21180;-73
2022/01/04 03:38:12;;;;;;;;;;;6.90;99.90;;;;;;5048174;28;21252;-73
2022/01/04 03:40:39;;;;;;;;;;;6.90;99.90;;;;;;5049543;28;20061;-72
2022/01/04 03:43:06;;;;;;;;;;;6.90;99.90;;;;;;5042656;28;20076;-73
2022/01/04 03:45:33;;;;;;;;;;;6.90;99.90;;;;;;5054709;28;20067;-72
2022/01/04 03:48:02;;;;;;;;;;;6.90;99.90;;;;;;5043270;28;20066;-73
2022/01/04 03:50:29;;;;;;;;;;;6.80;99.90;;;;;;5044938;28;20083;-73
2022/01/04 03:52:56;;;;;;;;;;;6.80;99.90;;;;;;5044892;28;20094;-74
2022/01/04 03:55:23;;;;;;;;;;;6.90;99.90;;;;;;5043993;28;20068;-72
2022/01/04 03:57:50;;;;;;;;;;;6.90;99.90;;;;;;5043555;28;20066;-72
2022/01/04 04:00:17;;;;;;;;;;;6.90;99.90;;;;;;5044475;28;21154;-72
2022/01/04 04:02:44;;;;;;;;;;;6.90;99.90;;;;;;5065081;28;20072;-73
2022/01/04 04:05:15;;;;;;;;;;;6.90;99.90;;;;;;5048353;28;21157;-73
2022/01/04 04:07:42;;;;;;;;;;;6.90;99.90;;;;;;5048137;28;20051;-72
2022/01/04 04:10:09;;;;;;;;;;;6.80;99.90;;;;;;5049137;28;20050;-74
2022/01/04 04:12:36;;;;;;;;;;;6.80;99.90;;;;;;5048366;28;20059;-72
2022/01/04 04:15:04;;;;;;;;;;;6.80;99.90;;;;;;5047487;28;20058;-73
2022/01/04 04:17:31;;;;;;;;;;;6.80;99.90;;;;;;5048728;28;20151;-73
2022/01/04 04:19:58;;;;;;;;;;;6.80;99.90;;;;;;5047980;28;21049;-73
2022/01/04 04:22:27;;;;;;;;;;;6.80;99.90;;;;;;5048557;28;21129;-73
2022/01/04 04:24:54;;;;;;;;;;;6.80;99.90;;;;;;5047383;28;21206;-73
2022/01/04 04:27:21;;;;;;;;;;;6.80;99.90;;;;;;5047920;28;20066;-73
2022/01/04 04:29:48;;;;;;;;;;;6.80;99.90;;;;;;5048206;28;20074;-73
2022/01/04 04:32:15;;;;;;;;;;;6.80;99.90;;;;;;5047800;28;20067;-73
2022/01/04 04:34:42;;;;;;;;;;;6.70;99.90;;;;;;5047513;28;20059;-72
2022/01/04 04:37:09;;;;;;;;;;;6.70;99.90;;;;;;5048079;28;20059;-73
2022/01/04 04:39:38;;;;;;;;;;;6.60;99.90;;;;;;5048258;28;20072;-71
2022/01/04 04:42:06;;;;;;;;;;;6.60;99.90;;;;;;5046697;28;20058;-73
2022/01/04 04:44:33;;;;;;;;;;;6.60;99.90;;;;;;5048417;28;20065;-73
2022/01/04 04:47:00;;;;;;;;;;;6.60;99.90;;;;;;5048085;28;20066;-73
2022/01/04 04:49:27;;;;;;;;;;;6.60;99.90;;;;;;5042831;28;20050;-73
2022/01/04 04:51:57;;;;;;;;;;;6.60;99.90;;;;;;5043269;28;20083;-73
2022/01/04 04:54:24;;;;;;;;;;;6.60;99.90;;;;;;5042687;28;20081;-72
2022/01/04 04:56:53;;;;;;;;;;;6.60;99.90;;;;;;5043740;28;20059;-73
2022/01/04 04:59:21;;;;;;;;;;;6.60;99.90;;;;;;5043229;28;20059;-73
2022/01/04 05:01:48;;;;;;;;;;;6.60;99.90;;;;;;5043297;28;20059;-73
2022/01/04 05:04:15;;;;;;;;;;;6.60;99.90;;;;;;5046434;28;21067;-73
2022/01/04 05:06:43;;;;;;;;;;;6.60;99.90;;;;;;5047391;28;20246;-73
2022/01/04 05:09:10;;;;;;;;;;;6.70;99.90;;;;;;5046424;28;20264;-73
2022/01/04 05:11:37;;;;;;;;;;;6.70;99.90;;;;;;5047328;28;20067;-73
2022/01/04 05:14:06;;;;;;;;;;;6.70;99.90;;;;;;5047192;28;20160;-74
2022/01/04 05:16:33;;;;;;;;;;;6.60;99.90;;;;;;5047040;28;20051;-73
2022/01/04 05:19:00;;;;;;;;;;;6.60;99.90;;;;;;5046913;28;20073;-73
2022/01/04 05:21:27;;;;;;;;;;;6.60;99.90;;;;;;5047359;28;20059;-73
2022/01/04 05:23:55;;;;;;;;;;;6.60;99.90;;;;;;5046635;28;20989;-73
2022/01/04 05:26:22;;;;;;;;;;;6.60;99.90;;;;;;5047345;28;20284;-73
2022/01/04 05:28:49;;;;;;;;;;;6.60;99.90;;;;;;5046556;28;20059;-73
2022/01/04 05:31:18;;;;;;;;;;;6.60;99.90;;;;;;5046955;28;20082;-73
2022/01/04 05:33:45;;;;;;;;;;;6.60;99.90;;;;;;5046554;28;21083;-71
2022/01/04 05:36:12;;;;;;;;;;;6.60;99.90;;;;;;5046714;28;20058;-72
2022/01/04 05:38:40;;;;;;;;;;;6.60;99.90;;;;;;5047149;28;21031;-73
2022/01/04 05:41:07;;;;;;;;;;;6.70;99.90;;;;;;5047356;28;20064;-73
2022/01/04 05:43:34;;;;;;;;;;;6.70;99.90;;;;;;5046740;28;20050;-73
2022/01/04 05:46:01;;;;;;;;;;;6.70;99.90;;;;;;5046986;28;20081;-72
2022/01/04 05:48:30;;;;;;;;;;;6.70;99.90;;;;;;5046132;28;20058;-73
2022/01/04 05:50:57;;;;;;;;;;;6.70;99.90;;;;;;5046573;28;20058;-73
2022/01/04 05:53:25;;;;;;;;;;;6.70;99.90;;;;;;5043936;28;20083;-74
2022/01/04 05:55:52;;;;;;;;;;;6.80;99.90;;;;;;5046505;28;21180;-73
2022/01/04 05:58:19;;;;;;;;;;;6.80;99.90;;;;;;5053669;28;20164;-73
2022/01/04 06:00:46;;;;;;;;;;;6.80;99.90;;;;;;5046631;28;20076;-73
2022/01/04 06:03:13;;;;;;;;;;;6.80;99.90;;;;;;5037243;28;20074;-73
2022/01/04 06:05:42;;;;;;;;;;;6.90;99.90;;;;;;5059716;28;20083;-73
2022/01/04 06:08:11;;;;;;;;;;;6.80;99.90;;;;;;5063758;28;21163;-73
2022/01/04 06:10:40;;;;;;;;;;;6.80;99.90;;;;;;5080009;28;20235;-73
2022/01/04 06:15:51;;;;;;;;;;;6.80;99.90;;;;;;5045739;28;20052;-74
2022/01/04 06:18:19;;;;;;;;;;;6.80;99.90;;;;;;5047015;28;20074;-73
2022/01/04 06:20:48;;;;;;;;;;;6.80;99.90;;;;;;5030579;28;21103;-73
2022/01/04 06:23:15;;;;;;;;;;;6.80;99.90;;;;;;5025910;28;20148;-73
2022/01/04 06:25:42;;;;;;;;;;;6.80;99.90;;;;;;5061986;22;20059;-66
2022/01/04 06:28:09;;;;;;;;;;;6.80;99.90;;;;;;5061435;28;20085;-67
2022/01/04 06:30:37;;;;;;;;;;;6.70;99.90;;;;;;5063342;28;20072;-66
2022/01/04 06:33:04;;;;;;;;;;;6.70;99.90;;;;;;5061753;28;21210;-67
2022/01/04 06:35:33;;;;;;;;;;;6.70;99.90;;;;;;5062013;28;20066;-67
2022/01/04 06:38:02;;;;;;;;;;;6.60;99.90;;;;;;5045087;28;20059;-67
2022/01/04 06:40:29;;;;;;;;;;;6.60;99.90;;;;;;5042369;28;20291;-67
2022/01/04 06:42:56;;;;;;;;;;;6.60;99.90;;;;;;5042192;28;20051;-71
2022/01/04 06:45:23;;;;;;;;;;;6.70;99.90;;;;;;5042707;28;21139;-69
2022/01/04 06:47:50;;;;;;;;;;;6.70;99.90;;;;;;5041327;28;21115;-69
2022/01/04 06:50:18;;;;;;;;;;;6.70;99.90;;;;;;5042387;28;20079;-67
2022/01/04 06:52:45;;;;;;;;;;;6.60;99.90;;;;;;5042106;28;20059;-67
2022/01/04 06:55:15;;;;;;;;;;;6.60;99.90;;;;;;5042452;28;20131;-67
2022/01/04 06:57:42;;;;;;;;;;;6.60;99.90;;;;;;5053465;28;20065;-67
2022/01/04 07:00:10;;;;;;;;;;;6.60;99.90;;;;;;5052601;28;20060;-67
2022/01/04 07:02:37;;;;;;;;;;;6.60;99.90;;;;;;5053319;28;20083;-67
2022/01/04 07:05:04;;;;;;;;;;;6.60;99.90;;;;;;5061527;28;21123;-68
2022/01/04 07:07:31;;;;;;;;;;;6.60;99.90;;;;;;5057239;28;20068;-68
2022/01/04 07:09:58;;;;;;;;;;;6.60;99.90;;;;;;5051752;28;20059;-68
2022/01/04 07:12:27;;;;;;;;;;;6.60;99.90;;;;;;5054914;28;21070;-68
2022/01/04 07:14:54;;;;;;;;;;;6.60;99.90;;;;;;5047229;28;20051;-67
2022/01/04 07:17:21;;;;;;;;;;;6.60;99.90;;;;;;5054354;28;21244;-68
2022/01/04 07:19:49;;;;;;;;;;;6.60;99.90;;;;;;5061019;28;20151;-67
2022/01/04 07:22:16;;;;;;;;;;;6.60;99.90;;;;;;5052096;28;20066;-68
2022/01/04 07:24:43;;;;;;;;;;;6.60;99.90;;;;;;5060956;28;20075;-70
2022/01/04 07:27:11;;;;;;;;;;;6.60;99.90;;;;;;5064835;28;21086;-68
2022/01/04 07:29:39;;;;;;;;;;;6.60;99.90;;;;;;5064997;28;20104;-68
2022/01/04 07:32:07;;;;;;;;;;;6.60;99.90;;;;;;5067035;28;21202;-68
2022/01/04 07:34:34;;;;;;;;;;;6.90;99.90;;;;;;5066751;28;21242;-68
2022/01/04 07:37:02;;;;;;;;;;;7.30;99.90;;;;;;5066955;28;20094;-68
2022/01/04 07:39:29;;;;;;;;;;;7.50;99.90;;;;;;5066691;28;20059;-69
2022/01/04 07:41:57;;;;;;;;;;;7.40;99.90;;;;;;5067104;28;20059;-69
2022/01/04 07:44:25;;;;;;;;;;;7.30;99.90;;;;;;5065809;28;20059;-68
2022/01/04 07:46:54;;;;;;;;;;;7.30;99.90;;;;;;5062799;28;20059;-68
2022/01/04 07:49:21;;;;;;;;;;;7.50;99.90;;;;;;5045700;28;20074;-68
2022/01/04 07:51:48;;;;;;;;;;;7.70;99.90;;;;;;5051769;28;20188;-68
2022/01/04 07:54:16;;;;;;;;;;;7.90;99.90;;;;;;5061979;28;20102;-68
2022/01/04 07:56:43;;;;;;;;;;;8.00;99.90;;;;;;5079783;27;20058;-68
2022/01/04 07:59:10;;;;;;;;;;;8.10;99.90;;;;;;5062927;28;20154;-68
2022/01/04 08:01:37;;;;;;;;;;;8.10;99.90;;;;;;5063931;28;20066;-68
2022/01/04 08:04:06;;;;;;;;;;;7.90;99.90;;;;;;5064587;28;20168;-68
2022/01/04 08:06:33;;;;;;;;;;;7.70;99.90;;;;;;5065026;28;20088;-68
2022/01/04 08:09:00;;;;;;;;;;;7.60;99.90;;;;;;5064351;28;20176;-68
2022/01/04 08:11:27;;;;;;;;;;;7.40;99.90;;;;;;5061609;27;20076;-68
2022/01/04 08:13:55;;;;;;;;;;;7.30;99.90;;;;;;5045236;28;20068;-68
2022/01/04 08:16:22;;;;;;;;;;;7.20;99.90;;;;;;5057721;28;20076;-68
2022/01/04 08:18:49;;;;;;;;;;;7.10;99.90;;;;;;5060455;28;20089;-67
2022/01/04 08:21:18;;;;;;;;;;;7.10;99.90;;;;;;5057902;28;20169;-69
2022/01/04 08:23:45;;;;;;;;;;;7.00;99.90;;;;;;5059148;28;20067;-67
2022/01/04 08:26:12;;;;;;;;;;;7.00;99.90;;;;;;5057608;28;20059;-69
2022/01/04 08:28:39;;;;;;;;;;;7.00;99.90;;;;;;5057382;28;20059;-68
2022/01/04 08:31:07;;;;;;;;;;;7.00;99.90;;;;;;5064987;28;20050;-67
2022/01/04 08:33:34;;;;;;;;;;;7.00;99.90;;;;;;5064321;28;20074;-67
2022/01/04 08:36:01;;;;;;;;;;;6.90;99.90;;;;;;5064190;28;20066;-68
2022/01/04 08:38:30;;;;;;;;;;;6.90;99.90;;;;;;5064251;28;20290;-68
2022/01/04 08:40:57;;;;;;;;;;;6.90;99.90;;;;;;5065075;28;20050;-68
2022/01/04 08:43:26;;;;;;;;;;;6.90;99.90;;;;;;5064364;28;20074;-68
2022/01/04 08:45:53;;;;;;;;;;;7.00;99.90;;;;;;5064387;28;21077;-68
2022/01/04 08:48:20;;;;;;;;;;;7.00;99.90;;;;;;5063151;28;21146;-68
2022/01/04 08:50:48;;;;;;;;;;;7.00;99.90;;;;;;5063998;27;20072;-68
2022/01/04 08:53:16;;;;;;;;;;;7.00;99.90;;;;;;5064335;28;20097;-68
2022/01/04 08:55:45;;;;;;;;;;;7.00;99.90;;;;;;5064832;28;20066;-68
2022/01/04 08:58:12;;;;;;;;;;;7.00;99.90;;;;;;5063761;28;20058;-68
2022/01/04 09:00:39;;;;;;;;;;;7.00;99.90;;;;;;5047198;28;20068;-68
2022/01/04 09:03:06;;;;;;;;;;;7.00;99.90;;;;;;5046312;28;20084;-68
2022/01/04 09:05:33;;;;;;;;;;;7.00;99.90;;;;;;5046694;28;20177;-68
2022/01/04 09:08:01;;;;;;;;;;;7.00;99.90;;;;;;5059414;28;20075;-68
2022/01/04 09:10:28;;;;;;;;;;;7.00;99.90;;;;;;5056936;28;20076;-67
2022/01/04 09:13:01;;;;;;;;;;;7.10;99.90;;;;;;5063102;28;20148;-67
2022/01/04 09:15:45;;;;;;;;;;;7.10;99.90;;;;;;5062859;28;20051;-67
2022/01/04 09:20:57;;;;;;;;;;;7.10;99.90;;;;;;5078471;27;21196;-68
2022/01/04 09:23:24;;;;;;;;;;;7.10;99.90;;;;;;5077556;27;20068;-68
2022/01/04 09:25:52;;;;;;;;;;;7.10;99.90;;;;;;5065042;28;20974;-68
2022/01/04 09:28:21;;;;;;;;;;;7.10;99.90;;;;;;5064300;28;20050;-68
2022/01/04 09:30:50;;;;;;;;;;;7.10;99.90;;;;;;5064807;28;20059;-67
2022/01/04 09:33:18;;;;;;;;;;;7.10;99.90;;;;;;5064658;28;21211;-68
2022/01/04 09:35:45;;;;;;;;;;;7.10;99.90;;;;;;5082165;27;20095;-68
2022/01/04 09:38:12;;;;;;;;;;;7.10;99.90;;;;;;5081589;27;20057;-68
2022/01/04 09:40:40;;;;;;;;;;;7.10;99.90;;;;;;5081784;27;21143;-68
2022/01/04 09:43:07;;;;;;;;;;;7.10;99.90;;;;;;5081165;27;20053;-68
2022/01/04 09:45:37;;;;;;;;;;;7.10;99.90;;;;;;5063853;28;20074;-68
2022/01/04 09:48:04;;;;;;;;;;;7.10;99.90;;;;;;5063796;28;20068;-68
2022/01/04 09:50:32;;;;;;;;;;;7.10;99.90;;;;;;5064651;28;20067;-67
2022/01/04 09:53:00;;;;;;;;;;;7.10;99.90;;;;;;5064255;28;21045;-68
2022/01/04 09:55:27;;;;;;;;;;;7.10;99.90;;;;;;5064544;28;20075;-68
2022/01/04 09:57:54;;;;;;;;;;;7.10;99.90;;;;;;5060063;28;20098;-69
2022/01/04 10:00:21;;;;;;;;;;;7.10;99.90;;;;;;5056251;28;20067;-68
2022/01/04 10:02:51;;;;;;;;;;;7.20;99.90;;;;;;5064149;28;20059;-67
2022/01/04 10:05:19;;;;;;;;;;;7.20;99.90;;;;;;5064469;28;21269;-67
2022/01/04 10:07:47;;;;;;;;;;;7.20;99.90;;;;;;5064154;28;20131;-68
2022/01/04 10:10:15;;;;;;;;;;;7.30;99.90;;;;;;5065083;28;20050;-68
2022/01/04 10:12:50;;;;;;;;;;;7.30;99.90;;;;;;5081034;28;20068;-68
2022/01/04 10:15:29;;;;;;;;;;;7.40;99.90;;;;;;5081536;28;20090;-68
2022/01/04 10:17:58;;;;;;;;;;;7.30;99.90;;;;;;5081532;28;20089;-68
2022/01/04 10:20:25;;;;;;;;;;;7.40;99.90;;;;;;5064010;28;20176;-68
2022/01/04 10:22:52;;;;;;;;;;;7.40;99.90;;;;;;5064171;28;20067;-68
2022/01/04 10:25:20;;;;;;;;;;;7.40;99.90;;;;;;5062862;28;20131;-67
2022/01/04 10:27:47;;;;;;;;;;;7.30;99.90;;;;;;5063845;28;20208;-68
2022/01/04 10:30:20;;;;;;;;;;;7.40;99.90;;;;;;5064694;28;20156;-68
2022/01/04 10:33:00;;;;;;;;;;;7.40;99.90;;;;;;5063909;28;21155;-68
2022/01/04 10:35:29;;;;;;;;;;;7.40;99.90;;;;;;5053983;28;20068;-67
2022/01/04 10:37:56;;;;;;;;;;;7.40;99.90;;;;;;5051950;28;20160;-68
2022/01/04 10:40:25;;;;;;;;;;;7.40;99.90;;;;;;5051944;28;20140;-68
2022/01/04 10:42:52;;;;;;;;;;;7.40;99.90;;;;;;5053742;28;20074;-68
2022/01/04 10:45:27;;;;;;;;;;;7.40;99.90;;;;;;5055291;28;20060;-68
2022/01/04 10:47:54;;;;;;;;;;;7.40;99.90;;;;;;5066468;28;20057;-68
2022/01/04 10:50:36;;;;;;;;;;;7.40;99.90;;;;;;5080309;27;20059;-68
2022/01/04 10:53:03;;;;;;;;;;;7.40;99.90;;;;;;5063042;28;20103;-69
2022/01/04 10:55:31;;;;;;;;;;;7.40;99.90;;;;;;5046168;28;20060;-69
2022/01/04 10:57:59;;;;;;;;;;;7.50;99.90;;;;;;5046679;28;20066;-68
2022/01/04 11:00:26;;;;;;;;;;;7.50;99.90;;;;;;5047202;28;21126;-68
2022/01/04 11:02:54;;;;;;;;;;;7.50;99.90;;;;;;5046123;28;20161;-69
2022/01/04 11:05:22;;;;;;;;;;;7.50;99.90;;;;;;5050667;27;20083;-68
2022/01/04 11:08:01;;;;;;;;;;;7.50;99.90;;;;;;5085142;27;20075;-68
2022/01/04 11:10:28;;;;;;;;;;;7.50;99.90;;;;;;5063359;28;20067;-68
2022/01/04 11:12:57;;;;;;;;;;;7.50;99.90;;;;;;5064549;28;20092;-67
2022/01/04 11:15:24;;;;;;;;;;;7.50;99.90;;;;;;5063055;28;21160;-67
2022/01/04 11:17:51;;;;;;;;;;;7.50;99.90;;;;;;5066298;28;21146;-68
2022/01/04 11:20:18;;;;;;;;;;;7.50;99.90;;;;;;5066774;28;20051;-68
2022/01/04 11:22:46;;;;;;;;;;;7.50;99.90;;;;;;5065760;28;20057;-67
2022/01/04 11:25:16;;;;;;;;;;;7.50;99.90;;;;;;5083409;27;20066;-68
2022/01/04 11:27:44;;;;;;;;;;;7.50;99.90;;;;;;5066467;28;20068;-69
2022/01/04 11:30:14;;;;;;;;;;;7.50;99.90;;;;;;5066163;28;21034;-69
2022/01/04 11:32:43;;;;;;;;;;;7.50;99.90;;;;;;5082748;27;20076;-68
2022/01/04 11:35:12;;;;;;;;;;;7.60;99.90;;;;;;5082885;27;20050;-68
2022/01/04 11:37:41;;;;;;;;;;;7.60;99.90;;;;;;5066195;28;20057;-68
2022/01/04 11:40:26;;;;;;;;;;;7.70;99.90;;;;;;5066194;28;20124;-69
2022/01/04 11:42:56;;;;;;;;;;;7.70;99.90;;;;;;5052451;28;20075;-69
2022/01/04 11:45:40;;;;;;;;;;;7.70;99.90;;;;;;5062325;28;20059;-68
2022/01/04 11:48:27;;;;;;;;;;;7.70;99.90;;;;;;5064684;28;20068;-71
2022/01/04 11:50:55;;;;;;;;;;;7.70;99.90;;;;;;5064480;28;20096;-69
2022/01/04 11:53:22;;;;;;;;;;;7.70;99.90;;;;;;5046741;28;20082;-68
2022/01/04 11:55:50;;;;;;;;;;;7.70;99.90;;;;;;5045190;28;20169;-69
2022/01/04 11:58:21;;;;;;;;;;;7.80;99.90;;;;;;5051283;28;20085;-68
2022/01/04 12:00:57;;;;;;;;;;;7.80;99.90;;;;;;5070866;27;20064;-69
2022/01/04 12:03:37;;;;;;;;;;;7.80;99.90;;;;;;5077148;27;20067;-68
2022/01/04 12:06:05;;;;;;;;;;;7.80;99.90;;;;;;5060666;28;21119;-69
2022/01/04 12:08:36;;;;;;;;;;;7.80;99.90;;;;;;5059810;28;20058;-69
2022/01/04 12:11:04;;;;;;;;;;;7.80;99.90;;;;;;5064759;27;20076;-69
2022/01/04 12:13:52;;;;;;;;;;;7.80;99.90;;;;;;5040304;28;20067;-69
2022/01/04 12:16:33;;;;;;;;;;;7.80;99.90;;;;;;5036230;28;21098;-69
2022/01/04 12:19:00;;;;;;;;;;;7.80;99.90;;;;;;5043613;28;20160;-68
2022/01/04 12:21:32;;;;;;;;;;;7.80;99.90;;;;;;5044420;28;20082;-69
2022/01/04 12:23:59;;;;;;;;;;;7.80;99.90;;;;;;5044420;28;20181;-69
2022/01/04 12:26:27;;;;;;;;;;;7.80;99.90;;;;;;5044458;28;21129;-69
2022/01/04 12:29:13;;;;;;;;;;;7.80;99.90;;;;;;5043508;28;20062;-69
2022/01/04 12:31:47;;;;;;;;;;;7.80;99.90;;;;;;5043934;28;20144;-68
2022/01/04 12:34:29;;;;;;;;;;;7.80;99.90;;;;;;5044358;28;20068;-68
2022/01/04 12:36:56;;;;;;;;;;;7.80;99.90;;;;;;5044394;28;20090;-69
2022/01/04 12:39:30;;;;;;;;;;;7.90;99.90;;;;;;5043710;28;20059;-68
2022/01/04 12:41:57;;;;;;;;;;;7.90;99.90;;;;;;5043931;28;20168;-68
2022/01/04 12:44:26;;;;;;;;;;;7.90;99.90;;;;;;5044068;28;20065;-69
2022/01/04 12:46:55;;;;;;;;;;;7.90;99.90;;;;;;5044001;28;20160;-68
2022/01/04 12:49:23;;;;;;;;;;;7.90;99.90;;;;;;5043359;28;20068;-68
2022/01/04 12:51:52;;;;;;;;;;;8.00;99.90;;;;;;5043511;28;20060;-69
2022/01/04 12:54:20;;;;;;;;;;;8.00;99.90;;;;;;5043955;28;20077;-68
2022/01/04 12:56:47;;;;;;;;;;;8.10;99.90;;;;;;5043808;28;20059;-68
2022/01/04 12:59:19;;;;;;;;;;;8.10;99.90;;;;;;5043719;28;20079;-68
2022/01/04 13:01:47;;;;;;;;;;;8.10;99.90;;;;;;5043559;28;20058;-69
2022/01/04 13:04:21;;;;;;;;;;;8.10;99.90;;;;;;5043093;28;20051;-68
2022/01/04 13:06:48;;;;;;;;;;;8.10;99.90;;;;;;5043245;28;20177;-68
2022/01/04 13:09:18;;;;;;;;;;;8.00;99.90;;;;;;5042664;28;21189;-69
2022/01/04 13:11:48;;;;;;;;;;;8.00;99.90;;;;;;5057745;28;20083;-69
2022/01/04 13:14:19;;;;;;;;;;;8.00;99.90;;;;;;5063413;28;20067;-69
2022/01/04 13:16:47;;;;;;;;;;;8.10;99.90;;;;;;5063689;28;20058;-68
2022/01/04 13:19:15;;;;;;;;;;;8.10;99.90;;;;;;5064370;28;20065;-69
2022/01/04 13:21:53;;;;;;;;;;;8.10;99.90;;;;;;5065197;28;20143;-68
2022/01/04 13:24:28;;;;;;;;;;;8.10;99.90;;;;;;5064916;28;21046;-69
2022/01/04 13:26:55;;;;;;;;;;;8.10;99.90;;;;;;5067556;27;21072;-69
2022/01/04 13:29:24;;;;;;;;;;;8.10;99.90;;;;;;5058366;28;20067;-69
2022/01/04 13:32:05;;;;;;;;;;;8.20;99.90;;;;;;5052672;28;20067;-69
2022/01/04 13:34:49;;;;;;;;;;;8.20;99.90;;;;;;5059948;27;20036;-68
2022/01/04 13:37:18;;;;;;;;;;;8.20;99.90;;;;;;5053389;28;20071;-69
2022/01/04 13:39:45;;;;;;;;;;;8.20;99.90;;;;;;5060252;28;21180;-68
2022/01/04 13:42:25;;;;;;;;;;;8.20;99.90;;;;;;5068586;28;20075;-68
2022/01/04 13:44:59;;;;;;;;;;;8.20;99.90;;;;;;5041906;28;20985;-68
2022/01/04 13:47:32;;;;;;;;;;;8.20;99.90;;;;;;5042162;28;20088;-68
2022/01/04 13:50:09;;;;;;;;;;;8.20;99.90;;;;;;5041744;28;20076;-68
2022/01/04 13:52:36;;;;;;;;;;;8.20;99.90;;;;;;5041533;28;20068;-68
2022/01/04 13:55:04;;;;;;;;;;;8.20;99.90;;;;;;5042286;28;20060;-68
2022/01/04 13:57:31;;;;;;;;;;;8.10;99.90;;;;;;5042052;28;20149;-68
2022/01/04 13:59:58;;;;;;;;;;;8.20;99.90;;;;;;5041597;28;21166;-68
2022/01/04 14:02:26;;;;;;;;;;;8.20;99.90;;;;;;5042107;28;20073;-68
2022/01/04 14:05:08;;;;;;;;;;;8.10;99.90;;;;;;5041760;28;20083;-68
2022/01/04 14:07:37;;;;;;;;;;;8.10;99.90;;;;;;5040474;28;20084;-68
2022/01/04 14:10:04;;;;;;;;;;;8.10;99.90;;;;;;5041608;28;21164;-72
2022/01/04 14:12:31;;;;;;;;;;;8.10;99.90;;;;;;5040723;28;21107;-70
2022/01/04 14:14:58;;;;;;;;;;;8.10;99.90;;;;;;5041305;28;21071;-75
2022/01/04 14:17:28;;;;;;;;;;;8.10;99.90;;;;;;5041154;28;21055;-69
2022/01/04 14:19:56;;;;;;;;;;;8.10;99.90;;;;;;5039426;28;20224;-69
2022/01/04 14:22:24;;;;;;;;;;;8.10;99.90;;;;;;5060136;28;20073;-69
2022/01/04 14:24:53;;;;;;;;;;;8.10;99.90;;;;;;5045565;28;20083;-69
2022/01/04 14:27:22;;;;;;;;;;;8.10;99.90;;;;;;5060992;28;20060;-69
2022/01/04 14:29:49;;;;;;;;;;;8.10;99.90;;;;;;5056182;28;20066;-69
2022/01/04 14:32:21;;;;;;;;;;;8.10;99.90;;;;;;5056530;28;21063;-70
2022/01/04 14:34:48;;;;;;;;;;;8.10;99.90;;;;;;5054111;28;20067;-69
2022/01/04 14:37:16;;;;;;;;;;;8.10;99.90;;;;;;5055275;28;20059;-70
2022/01/04 14:39:43;;;;;;;;;;;8.10;99.90;;;;;;5076441;28;21068;-69
2022/01/04 14:42:11;;;;;;;;;;;8.10;99.90;;;;;;5076273;28;20066;-70
2022/01/04 14:44:38;;;;;;;;;;;8.10;99.90;;;;;;5071339;28;20068;-70
2022/01/04 14:47:06;;;;;;;;;;;8.10;99.90;;;;;;5062891;28;20067;-70